Time;durP1;ratioP1;P1;durP2;ratioP2;P2;SDS_P1;SDS_P2;PMS_P1;PMS_P2;Temp;Humidity;BMP_temperature;BMP_pressure;BME280_temperature;BME280_humidity;BME280_pressure;Samples;Min_cycle;Max_cycle;Signal;HPM_P1;HPM_P2
2023/11/27 00:02:23;;;;;;;9.17;8.67;;;6.40;29.70;;;;;;5056497;28;20462;-81
2023/11/27 00:04:49;;;;;;;9.10;8.40;;;6.30;29.60;;;;;;5060102;28;20843;-81
2023/11/27 00:07:15;;;;;;;9.10;8.50;;;6.20;29.60;;;;;;5064683;28;20179;-79
2023/11/27 00:09:41;;;;;;;8.63;8.23;;;6.20;29.60;;;;;;5036863;28;20492;-81
2023/11/27 00:12:08;;;;;;;9.20;8.70;;;6.30;29.90;;;;;;5042638;28;20229;-77
2023/11/27 00:14:34;;;;;;;9.90;9.30;;;6.30;29.60;;;;;;5054196;28;20195;-78
2023/11/27 00:16:59;;;;;;;8.70;8.20;;;6.30;29.60;;;;;;5042382;28;20434;-79
2023/11/27 00:19:25;;;;;;;8.63;8.20;;;6.40;29.70;;;;;;5058490;28;20801;-80
2023/11/27 00:21:50;;;;;;;8.53;8.03;;;6.30;29.70;;;;;;5038263;28;20219;-80
2023/11/27 00:24:16;;;;;;;8.70;8.30;;;6.20;29.60;;;;;;5037307;28;20199;-80
2023/11/27 00:26:41;;;;;;;8.43;8.00;;;6.20;29.90;;;;;;5043986;28;20183;-81
2023/11/27 00:29:07;;;;;;;8.00;7.53;;;6.00;30.00;;;;;;5068966;28;20183;-77
2023/11/27 00:31:33;;;;;;;8.40;7.80;;;6.00;30.40;;;;;;5075502;28;20207;-78
2023/11/27 00:33:58;;;;;;;9.07;8.47;;;6.10;30.50;;;;;;5061905;28;20192;-81
2023/11/27 00:36:25;;;;;;;9.37;8.60;;;6.20;29.90;;;;;;5070936;28;20206;-81
2023/11/27 00:38:51;;;;;;;8.10;7.60;;;6.30;29.60;;;;;;5069591;28;20288;-81
2023/11/27 00:41:17;;;;;;;8.60;8.20;;;6.50;29.70;;;;;;5048611;28;20446;-80
2023/11/27 00:43:46;;;;;;;9.20;8.70;;;6.80;29.00;;;;;;5047056;28;20422;-80
2023/11/27 00:46:13;;;;;;;8.73;8.13;;;7.10;28.40;;;;;;5058462;28;20453;-79
2023/11/27 00:48:39;;;;;;;8.43;7.93;;;7.20;27.50;;;;;;5048559;28;20926;-80
2023/11/27 00:51:09;;;;;;;8.63;8.10;;;7.20;27.30;;;;;;5046257;28;20484;-81
2023/11/27 00:53:35;;;;;;;9.33;8.93;;;7.30;26.90;;;;;;5050975;28;20188;-80
2023/11/27 00:56:00;;;;;;;9.23;8.73;;;7.50;26.70;;;;;;5044261;28;20446;-79
2023/11/27 00:58:26;;;;;;;8.07;7.70;;;7.30;26.00;;;;;;5047683;28;20191;-80
2023/11/27 01:00:55;;;;;;;9.10;8.40;;;7.40;26.10;;;;;;5050461;28;20702;-79
2023/11/27 01:03:20;;;;;;;8.93;8.43;;;7.40;26.40;;;;;;5051611;28;20233;-81
2023/11/27 01:05:46;;;;;;;9.37;8.87;;;7.30;26.40;;;;;;5045980;28;20433;-79
2023/11/27 01:08:14;;;;;;;8.87;8.47;;;7.10;26.70;;;;;;5063567;28;20188;-83
2023/11/27 01:10:43;;;;;;;8.97;8.53;;;7.00;27.00;;;;;;5052679;28;20211;-82
2023/11/27 01:13:10;;;;;;;8.83;8.43;;;7.10;26.80;;;;;;5054926;28;20435;-82
2023/11/27 01:15:36;;;;;;;8.93;8.53;;;7.10;26.50;;;;;;5048002;28;20465;-80
2023/11/27 01:18:02;;;;;;;9.30;8.87;;;7.20;26.50;;;;;;5046758;28;20778;-81
2023/11/27 01:20:28;;;;;;;8.40;7.87;;;7.20;26.20;;;;;;5056305;28;20216;-82
2023/11/27 01:22:53;;;;;;;8.83;8.27;;;7.20;26.40;;;;;;5067422;28;20501;-82
2023/11/27 01:25:19;;;;;;;8.13;7.63;;;7.10;26.20;;;;;;5047362;28;20188;-80
2023/11/27 01:27:45;;;;;;;8.83;8.30;;;6.60;27.20;;;;;;5044105;28;20267;-80
2023/11/27 01:30:10;;;;;;;8.00;7.70;;;6.30;28.20;;;;;;5063700;28;20188;-75
2023/11/27 01:32:37;;;;;;;9.03;8.60;;;6.10;28.80;;;;;;5035810;28;20224;-78
2023/11/27 01:35:02;;;;;;;9.10;8.70;;;6.00;29.40;;;;;;5043900;28;20428;-78
2023/11/27 01:37:28;;;;;;;9.17;8.67;;;6.00;29.10;;;;;;5063784;28;20521;-80
2023/11/27 01:39:53;;;;;;;8.90;8.50;;;6.00;29.40;;;;;;5051896;28;20260;-80
2023/11/27 01:42:19;;;;;;;8.80;8.30;;;6.00;29.40;;;;;;5049101;28;20246;-77
2023/11/27 01:44:44;;;;;;;8.93;8.53;;;6.20;29.30;;;;;;5070220;28;20187;-78
2023/11/27 01:47:10;;;;;;;8.63;8.23;;;6.10;28.90;;;;;;5059406;28;20251;-76
2023/11/27 01:49:37;;;;;;;8.47;7.97;;;6.10;29.30;;;;;;5043752;28;20664;-80
2023/11/27 01:52:05;;;;;;;8.43;8.03;;;6.20;29.10;;;;;;5059145;28;20195;-79
2023/11/27 01:54:31;;;;;;;8.60;8.20;;;6.50;28.40;;;;;;5066549;28;20423;-79
2023/11/27 01:56:58;;;;;;;8.80;8.40;;;6.60;27.60;;;;;;5041844;28;20469;-78
2023/11/27 01:59:24;;;;;;;8.90;8.50;;;6.60;27.30;;;;;;5044373;28;20798;-80
2023/11/27 02:01:50;;;;;;;8.30;7.90;;;6.50;27.30;;;;;;5041059;28;20462;-81
2023/11/27 02:04:16;;;;;;;9.10;8.60;;;6.30;28.20;;;;;;5041365;28;20805;-80
2023/11/27 02:06:41;;;;;;;9.20;8.70;;;6.20;28.20;;;;;;5041764;28;20189;-79
2023/11/27 02:09:08;;;;;;;8.33;7.93;;;6.10;28.50;;;;;;5062691;28;20593;-78
2023/11/27 02:11:42;;;;;;;8.40;8.00;;;6.00;28.90;;;;;;5042224;28;20221;-79
2023/11/27 02:14:08;;;;;;;8.27;7.87;;;5.90;28.70;;;;;;5069894;28;20471;-80
2023/11/27 02:16:34;;;;;;;9.30;8.80;;;5.80;29.30;;;;;;5042595;28;20423;-80
2023/11/27 02:18:59;;;;;;;9.30;8.83;;;5.80;29.40;;;;;;5051454;28;20178;-78
2023/11/27 02:21:25;;;;;;;8.50;8.10;;;5.80;29.30;;;;;;5041409;28;20212;-80
2023/11/27 02:23:50;;;;;;;8.57;8.17;;;5.90;29.40;;;;;;5049681;28;20662;-81
2023/11/27 02:26:16;;;;;;;8.43;7.93;;;5.80;29.00;;;;;;5041208;28;20192;-80
2023/11/27 02:28:41;;;;;;;8.10;7.70;;;5.70;29.30;;;;;;5069803;28;20184;-78
2023/11/27 02:31:07;;;;;;;8.20;7.70;;;5.70;29.30;;;;;;5046717;28;20207;-80
2023/11/27 02:33:33;;;;;;;9.00;8.60;;;5.70;29.30;;;;;;5041634;28;20190;-81
2023/11/27 02:35:59;;;;;;;8.50;8.10;;;5.50;29.60;;;;;;5035738;28;20274;-81
2023/11/27 02:38:24;;;;;;;8.73;8.33;;;5.40;29.60;;;;;;5039900;28;20461;-80
2023/11/27 02:40:50;;;;;;;8.33;7.93;;;5.40;30.30;;;;;;5032223;28;20622;-80
2023/11/27 02:43:16;;;;;;;8.27;7.80;;;5.50;30.00;;;;;;5041473;28;20204;-79
2023/11/27 02:45:41;;;;;;;9.17;8.77;;;5.50;29.40;;;;;;5050830;28;20445;-81
2023/11/27 02:48:07;;;;;;;8.20;7.80;;;5.50;29.20;;;;;;5058072;28;20569;-81
2023/11/27 02:50:32;;;;;;;8.10;7.70;;;5.30;31.00;;;;;;5043560;28;20220;-80
2023/11/27 02:52:58;;;;;;;8.43;8.03;;;5.40;30.50;;;;;;5048214;28;20192;-79
2023/11/27 02:55:24;;;;;;;8.43;8.00;;;5.30;30.70;;;;;;5050757;28;20196;-80
2023/11/27 02:57:49;;;;;;;8.30;7.97;;;5.10;30.80;;;;;;5050165;28;20209;-80
2023/11/27 03:00:15;;;;;;;8.87;8.40;;;5.10;31.30;;;;;;5071588;28;20438;-79
2023/11/27 03:02:42;;;;;;;8.70;8.30;;;5.10;31.70;;;;;;5046645;28;20245;-79
2023/11/27 03:05:08;;;;;;;8.33;7.93;;;5.10;31.80;;;;;;5044467;28;20608;-77
2023/11/27 03:07:39;;;;;;;8.37;7.97;;;5.10;31.50;;;;;;5053909;28;20905;-78
2023/11/27 03:10:06;;;;;;;7.90;7.50;;;4.90;31.70;;;;;;5044993;28;20801;-79
2023/11/27 03:12:32;;;;;;;8.83;8.40;;;4.90;32.60;;;;;;5056651;28;20426;-78
2023/11/27 03:14:58;;;;;;;8.13;7.73;;;5.00;32.20;;;;;;5055511;28;20573;-80
2023/11/27 03:17:24;;;;;;;8.67;8.07;;;5.10;31.90;;;;;;5048056;28;20972;-78
2023/11/27 03:19:52;;;;;;;9.07;8.67;;;5.10;31.50;;;;;;5055221;28;20179;-79
2023/11/27 03:22:18;;;;;;;8.63;8.03;;;5.30;31.10;;;;;;5053407;28;20585;-78
2023/11/27 03:24:43;;;;;;;9.27;8.70;;;5.50;31.00;;;;;;5050108;28;20521;-79
2023/11/27 03:27:09;;;;;;;8.03;7.73;;;5.80;30.70;;;;;;5050391;28;20263;-80
2023/11/27 03:29:34;;;;;;;7.90;7.60;;;6.10;29.50;;;;;;5067430;28;20193;-79
2023/11/27 03:32:00;;;;;;;8.10;7.80;;;6.40;29.10;;;;;;5058985;28;20770;-79
2023/11/27 03:34:25;;;;;;;8.37;7.97;;;6.60;27.90;;;;;;5045084;28;20187;-79
2023/11/27 03:36:51;;;;;;;8.30;8.00;;;6.80;27.00;;;;;;5039366;28;20192;-78
2023/11/27 03:39:17;;;;;;;7.50;7.20;;;7.00;26.60;;;;;;5044725;28;20195;-80
2023/11/27 03:41:42;;;;;;;8.17;7.77;;;7.10;26.10;;;;;;5055850;28;20211;-80
2023/11/27 03:44:08;;;;;;;9.50;9.00;;;7.20;25.90;;;;;;5045694;28;20177;-80
2023/11/27 03:46:34;;;;;;;8.67;8.27;;;7.40;25.40;;;;;;5043507;28;20183;-78
2023/11/27 03:49:00;;;;;;;8.70;8.20;;;7.50;25.00;;;;;;5040411;28;20625;-79
2023/11/27 03:51:26;;;;;;;8.63;8.33;;;7.40;24.60;;;;;;5041835;28;20887;-79
2023/11/27 03:53:51;;;;;;;7.90;7.50;;;7.20;25.20;;;;;;5039780;28;20431;-79
2023/11/27 03:56:17;;;;;;;8.00;7.70;;;7.20;25.50;;;;;;5059883;28;20248;-81
2023/11/27 03:58:42;;;;;;;8.30;7.83;;;7.40;25.20;;;;;;5046073;28;20196;-80
2023/11/27 04:01:08;;;;;;;8.27;7.90;;;7.50;24.60;;;;;;5057204;28;20274;-79
2023/11/27 04:03:37;;;;;;;8.33;7.93;;;7.60;24.40;;;;;;5041274;28;20255;-81
2023/11/27 04:06:04;;;;;;;8.03;7.73;;;7.70;24.20;;;;;;5065824;28;20426;-79
2023/11/27 04:08:30;;;;;;;8.77;8.23;;;7.70;24.10;;;;;;5073942;28;20579;-78
2023/11/27 04:10:55;;;;;;;7.60;7.40;;;7.70;23.80;;;;;;5055233;28;20454;-80
2023/11/27 04:13:20;;;;;;;8.17;7.83;;;7.70;24.30;;;;;;5050144;28;20222;-80
2023/11/27 04:15:47;;;;;;;7.60;7.30;;;7.70;23.90;;;;;;5068280;28;20238;-80
2023/11/27 04:18:12;;;;;;;8.80;8.23;;;7.80;23.90;;;;;;5044476;28;20199;-78
2023/11/27 04:20:38;;;;;;;7.97;7.63;;;8.00;23.40;;;;;;5049341;28;20506;-78
2023/11/27 04:23:04;;;;;;;8.20;7.80;;;8.00;22.70;;;;;;5046821;28;20696;-78
2023/11/27 04:25:30;;;;;;;8.07;7.77;;;8.00;22.70;;;;;;5043683;28;20433;-78
2023/11/27 04:27:56;;;;;;;8.30;7.90;;;7.90;22.60;;;;;;5069432;28;20429;-81
2023/11/27 04:30:21;;;;;;;8.07;7.77;;;7.80;22.60;;;;;;5054015;28;20210;-78
2023/11/27 04:32:47;;;;;;;8.70;8.40;;;7.30;23.10;;;;;;5046150;28;20192;-79
2023/11/27 04:35:12;;;;;;;8.50;8.00;;;7.00;24.10;;;;;;5046233;28;20195;-79
2023/11/27 04:37:39;;;;;;;8.30;7.90;;;6.90;24.80;;;;;;5041534;28;20199;-79
2023/11/27 04:40:09;;;;;;;8.00;7.60;;;7.00;24.90;;;;;;5048868;28;20192;-79
2023/11/27 04:42:38;;;;;;;8.60;8.20;;;7.20;24.60;;;;;;5043960;28;20474;-81
2023/11/27 04:45:05;;;;;;;7.10;6.80;;;7.30;24.90;;;;;;5043210;28;20434;-79
2023/11/27 04:47:32;;;;;;;8.17;7.60;;;7.30;24.10;;;;;;5061486;28;20432;-75
2023/11/27 04:49:57;;;;;;;7.90;7.60;;;7.30;24.10;;;;;;5062643;28;20918;-78
2023/11/27 04:52:23;;;;;;;7.77;7.47;;;6.90;24.60;;;;;;5060759;28;20421;-79
2023/11/27 04:54:48;;;;;;;7.20;6.90;;;7.00;24.70;;;;;;5050106;28;20184;-81
2023/11/27 04:57:14;;;;;;;7.40;7.10;;;7.10;24.90;;;;;;5048448;28;20484;-81
2023/11/27 04:59:39;;;;;;;8.30;7.90;;;7.10;24.00;;;;;;5071518;28;20183;-80
2023/11/27 05:02:05;;;;;;;8.30;7.90;;;7.20;24.40;;;;;;5062354;28;20293;-78
2023/11/27 05:04:33;;;;;;;8.03;7.63;;;7.40;24.30;;;;;;5059214;28;20194;-81
2023/11/27 05:07:00;;;;;;;8.03;7.63;;;7.60;23.90;;;;;;5067184;28;20225;-79
2023/11/27 05:09:26;;;;;;;8.07;7.67;;;7.80;23.40;;;;;;5059314;28;20422;-82
2023/11/27 05:11:52;;;;;;;8.80;8.43;;;8.00;22.90;;;;;;5059587;28;20446;-80
2023/11/27 05:14:17;;;;;;;8.70;8.30;;;8.10;22.70;;;;;;5045183;28;20521;-79
2023/11/27 05:16:43;;;;;;;7.93;7.53;;;8.20;22.40;;;;;;5066212;28;20205;-81
2023/11/27 05:19:08;;;;;;;9.20;8.90;;;8.20;22.10;;;;;;5042323;28;20192;-81
2023/11/27 05:21:34;;;;;;;7.53;7.23;;;7.80;21.90;;;;;;5043086;28;20238;-81
2023/11/27 05:23:59;;;;;;;7.70;7.40;;;7.50;22.90;;;;;;5055146;28;20183;-78
2023/11/27 05:26:25;;;;;;;8.40;7.90;;;7.30;23.30;;;;;;5044950;28;20188;-80
2023/11/27 05:28:50;;;;;;;8.40;8.00;;;7.40;23.20;;;;;;5056025;28;20187;-81
2023/11/27 05:31:17;;;;;;;7.63;7.33;;;7.40;23.00;;;;;;5060822;28;20199;-80
2023/11/27 05:33:42;;;;;;;8.93;8.43;;;7.30;23.30;;;;;;5041483;28;20603;-81
2023/11/27 05:36:12;;;;;;;7.73;7.33;;;7.20;23.20;;;;;;5063648;28;20433;-81
2023/11/27 05:38:38;;;;;;;8.33;7.93;;;7.20;23.80;;;;;;5059510;28;20187;-78
2023/11/27 05:41:04;;;;;;;8.33;7.93;;;7.30;24.10;;;;;;5043715;28;20443;-77
2023/11/27 05:43:31;;;;;;;8.33;7.83;;;7.30;23.40;;;;;;5044355;28;20466;-78
2023/11/27 05:45:57;;;;;;;8.17;7.77;;;7.30;23.10;;;;;;5066150;28;20426;-80
2023/11/27 05:48:22;;;;;;;7.47;7.17;;;7.30;22.90;;;;;;5062972;28;20424;-76
2023/11/27 05:50:48;;;;;;;7.30;7.10;;;7.20;23.40;;;;;;5070984;28;20261;-78
2023/11/27 05:53:14;;;;;;;7.67;7.33;;;6.90;22.70;;;;;;5066961;28;20188;-78
2023/11/27 05:55:40;;;;;;;7.67;7.37;;;6.70;23.80;;;;;;5064058;28;20430;-77
2023/11/27 05:58:07;;;;;;;7.70;7.30;;;6.20;24.90;;;;;;5063562;28;20198;-80
2023/11/27 06:00:32;;;;;;;7.40;7.00;;;6.20;26.00;;;;;;5054094;28;20203;-78
2023/11/27 06:02:58;;;;;;;8.30;7.90;;;6.10;25.40;;;;;;5060235;28;20469;-79
2023/11/27 06:05:24;;;;;;;7.90;7.50;;;6.00;25.60;;;;;;5072549;28;20202;-79
2023/11/27 06:07:50;;;;;;;8.20;7.80;;;6.00;25.20;;;;;;5052501;28;20180;-79
2023/11/27 06:10:16;;;;;;;8.40;8.10;;;5.90;26.10;;;;;;5067086;28;20429;-79
2023/11/27 06:12:42;;;;;;;8.30;7.90;;;6.00;25.50;;;;;;5051535;28;20207;-81
2023/11/27 06:15:10;;;;;;;8.47;8.17;;;5.80;25.80;;;;;;5066824;28;20733;-79
2023/11/27 06:17:35;;;;;;;8.70;8.33;;;5.70;26.30;;;;;;5048275;28;20442;-78
2023/11/27 06:20:01;;;;;;;8.77;8.40;;;5.90;25.90;;;;;;5067241;28;21104;-79
2023/11/27 06:22:27;;;;;;;8.93;8.53;;;6.00;25.70;;;;;;5066423;28;20220;-78
2023/11/27 06:24:53;;;;;;;8.83;8.30;;;6.00;25.70;;;;;;5062339;28;20210;-76
2023/11/27 06:27:18;;;;;;;25.50;23.70;;;6.00;25.40;;;;;;5049354;28;20455;-78
2023/11/27 06:29:44;;;;;;;8.23;7.93;;;6.20;25.40;;;;;;5062155;28;20196;-77
2023/11/27 06:32:09;;;;;;;8.40;8.10;;;6.40;25.00;;;;;;5057545;28;20214;-78
2023/11/27 06:34:35;;;;;;;8.27;7.77;;;6.40;24.90;;;;;;5065132;28;20275;-78
2023/11/27 06:37:01;;;;;;;7.83;7.53;;;6.60;24.80;;;;;;5067079;28;20196;-77
2023/11/27 06:39:27;;;;;;;8.90;8.50;;;6.80;24.50;;;;;;5056587;28;20601;-78
2023/11/27 06:41:53;;;;;;;9.20;8.80;;;6.90;24.10;;;;;;5063416;28;20239;-78
2023/11/27 06:44:19;;;;;;;8.37;7.90;;;7.00;23.80;;;;;;5057413;28;20183;-78
2023/11/27 06:46:48;;;;;;;8.67;8.17;;;6.80;22.90;;;;;;5061024;28;20423;-77
2023/11/27 06:49:14;;;;;;;8.73;8.37;;;6.60;23.40;;;;;;5042517;28;20203;-78
2023/11/27 06:51:40;;;;;;;8.27;7.97;;;6.50;24.40;;;;;;5045981;28;20486;-79
2023/11/27 06:54:05;;;;;;;8.30;8.00;;;6.30;24.10;;;;;;5049611;28;20438;-78
2023/11/27 06:56:33;;;;;;;9.23;8.93;;;6.30;24.20;;;;;;5071673;28;20183;-79
2023/11/27 06:59:04;;;;;;;9.07;8.67;;;6.10;24.60;;;;;;5063053;28;20274;-79
2023/11/27 07:01:30;;;;;;;8.93;8.63;;;6.10;25.40;;;;;;5052942;28;20472;-81
2023/11/27 07:03:56;;;;;;;9.00;8.60;;;6.20;24.60;;;;;;5054837;28;20442;-80
2023/11/27 07:06:22;;;;;;;8.67;8.37;;;6.00;24.70;;;;;;5050913;28;20179;-77
2023/11/27 07:08:48;;;;;;;9.40;8.70;;;6.10;25.10;;;;;;5055912;28;20910;-78
2023/11/27 07:11:13;;;;;;;8.20;7.80;;;6.10;24.80;;;;;;5059765;28;20441;-75
2023/11/27 07:13:40;;;;;;;8.67;8.13;;;6.10;24.80;;;;;;5064745;28;20189;-77
2023/11/27 07:16:06;;;;;;;9.30;8.80;;;6.00;25.50;;;;;;5063010;28;20187;-76
2023/11/27 07:18:32;;;;;;;8.77;8.37;;;6.10;25.30;;;;;;5067501;28;20446;-79
2023/11/27 07:20:58;;;;;;;9.70;9.20;;;6.30;24.90;;;;;;5070711;28;20461;-79
2023/11/27 07:23:26;;;;;;;9.03;8.63;;;6.60;24.50;;;;;;5046286;28;20212;-78
2023/11/27 07:25:52;;;;;;;9.17;8.57;;;6.80;23.90;;;;;;5064496;28;20427;-78
2023/11/27 07:28:18;;;;;;;9.70;9.20;;;7.00;23.60;;;;;;5043539;28;20433;-79
2023/11/27 07:30:43;;;;;;;9.93;9.43;;;7.00;23.10;;;;;;5050595;28;20482;-79
2023/11/27 07:33:09;;;;;;;9.17;8.67;;;7.00;22.60;;;;;;5067535;28;20192;-80
2023/11/27 07:35:35;;;;;;;8.80;8.40;;;6.90;23.30;;;;;;5044372;28;20202;-80
2023/11/27 07:38:01;;;;;;;8.93;8.37;;;7.00;23.70;;;;;;5066765;28;20195;-78
2023/11/27 07:40:27;;;;;;;8.87;8.37;;;7.10;23.80;;;;;;5048690;28;20219;-78
2023/11/27 07:42:53;;;;;;;10.47;9.87;;;7.20;22.90;;;;;;5061607;28;20311;-81
2023/11/27 07:45:19;;;;;;;9.77;9.17;;;7.20;22.70;;;;;;5053133;28;20435;-78
2023/11/27 07:47:44;;;;;;;9.77;9.07;;;7.30;23.10;;;;;;5050594;28;20183;-78
2023/11/27 07:50:10;;;;;;;8.80;8.30;;;7.30;22.70;;;;;;5049059;28;20181;-80
2023/11/27 07:52:36;;;;;;;9.40;8.73;;;7.30;23.00;;;;;;5050722;28;20191;-79
2023/11/27 07:55:04;;;;;;;9.30;8.70;;;7.30;22.70;;;;;;5060510;28;20646;-80
2023/11/27 07:57:31;;;;;;;10.03;9.43;;;7.30;22.20;;;;;;5050368;28;20433;-80
2023/11/27 07:59:56;;;;;;;9.57;9.07;;;7.30;22.20;;;;;;5057431;28;20430;-80
2023/11/27 08:02:22;;;;;;;9.43;8.97;;;7.40;22.30;;;;;;5065485;28;20477;-80
2023/11/27 08:04:47;;;;;;;9.00;8.57;;;7.50;22.40;;;;;;5043687;28;20185;-80
2023/11/27 08:07:13;;;;;;;8.77;8.30;;;7.50;22.30;;;;;;5035454;28;20192;-78
2023/11/27 08:09:39;;;;;;;9.77;9.23;;;7.30;22.20;;;;;;5066531;28;20547;-80
2023/11/27 08:12:04;;;;;;;9.20;8.80;;;7.00;22.70;;;;;;5050395;28;20437;-80
2023/11/27 08:14:30;;;;;;;8.97;8.57;;;6.80;22.90;;;;;;5040616;28;20192;-80
2023/11/27 08:16:56;;;;;;;10.00;9.47;;;6.70;23.70;;;;;;5047794;28;20793;-79
2023/11/27 08:19:22;;;;;;;10.07;9.47;;;6.40;24.20;;;;;;5044097;28;20192;-81
2023/11/27 08:21:48;;;;;;;10.57;9.97;;;6.50;24.10;;;;;;5066516;28;20207;-79
2023/11/27 08:24:14;;;;;;;11.20;10.60;;;6.50;23.80;;;;;;5051907;28;21091;-79
2023/11/27 08:26:49;;;;;;;9.80;9.27;;;6.30;24.70;;;;;;5055867;28;20190;-78
2023/11/27 08:29:15;;;;;;;10.30;9.70;;;6.20;24.80;;;;;;5052044;28;20466;-77
2023/11/27 08:31:42;;;;;;;10.47;9.80;;;6.00;25.30;;;;;;5043558;28;20449;-80
2023/11/27 08:34:07;;;;;;;10.20;9.70;;;5.90;26.20;;;;;;5062643;28;20427;-78
2023/11/27 08:36:33;;;;;;;10.50;10.00;;;5.80;26.00;;;;;;5058383;28;20442;-78
2023/11/27 08:38:59;;;;;;;10.10;9.60;;;5.80;26.10;;;;;;5045618;28;20218;-79
2023/11/27 08:41:27;;;;;;;11.00;10.30;;;5.70;26.10;;;;;;5062564;28;20298;-78
2023/11/27 08:43:53;;;;;;;10.63;10.03;;;5.60;26.80;;;;;;5039259;28;20185;-80
2023/11/27 08:46:19;;;;;;;10.73;10.07;;;5.60;26.80;;;;;;5075156;28;20437;-80
2023/11/27 08:48:44;;;;;;;11.87;11.27;;;5.60;26.60;;;;;;5059531;28;20187;-81
2023/11/27 08:51:10;;;;;;;10.17;9.67;;;5.60;26.70;;;;;;5076544;28;20203;-81
2023/11/27 08:53:36;;;;;;;10.43;9.83;;;5.60;26.70;;;;;;5050567;28;20179;-77
2023/11/27 08:56:02;;;;;;;10.40;9.90;;;5.60;26.70;;;;;;5047754;28;20218;-81
2023/11/27 08:58:28;;;;;;;10.10;9.60;;;5.60;26.90;;;;;;5060537;28;20274;-77
2023/11/27 09:00:54;;;;;;;10.87;10.10;;;5.60;26.70;;;;;;5044485;28;20476;-79
2023/11/27 09:03:20;;;;;;;11.30;10.57;;;5.50;26.60;;;;;;5037970;28;20462;-78
2023/11/27 09:05:46;;;;;;;10.40;9.90;;;5.70;26.80;;;;;;5059964;28;20176;-82
2023/11/27 09:08:13;;;;;;;10.30;9.80;;;5.60;26.40;;;;;;5037004;28;20234;-80
2023/11/27 09:10:40;;;;;;;11.57;10.97;;;5.60;26.70;;;;;;5050297;28;20445;-81
2023/11/27 09:13:06;;;;;;;10.23;9.63;;;5.50;26.60;;;;;;5047534;28;20498;-81
2023/11/27 09:15:33;;;;;;;11.57;10.70;;;5.50;26.90;;;;;;5058588;28;20430;-81
2023/11/27 09:17:59;;;;;;;12.10;10.67;;;5.70;26.80;;;;;;5063271;28;20441;-81
2023/11/27 09:20:25;;;;;;;10.80;10.27;;;5.80;26.30;;;;;;5051366;28;20970;-80
2023/11/27 09:22:52;;;;;;;11.47;10.77;;;5.90;25.80;;;;;;5052221;28;20556;-82
2023/11/27 09:25:18;;;;;;;11.80;11.00;;;5.90;25.50;;;;;;5050433;28;20307;-82
2023/11/27 09:27:44;;;;;;;11.00;10.43;;;5.90;25.50;;;;;;5065640;28;20437;-81
2023/11/27 09:30:10;;;;;;;10.63;9.97;;;6.10;25.60;;;;;;5052746;28;20834;-82
2023/11/27 09:32:39;;;;;;;10.60;10.03;;;6.20;25.00;;;;;;5045491;28;20420;-81
2023/11/27 09:35:14;;;;;;;10.07;9.60;;;6.30;25.20;;;;;;5037604;28;20523;-81
2023/11/27 09:37:41;;;;;;;9.50;9.10;;;6.20;23.80;;;;;;5049830;28;20500;-80
2023/11/27 09:40:10;;;;;;;10.43;9.83;;;6.00;24.60;;;;;;5070914;28;20429;-80
2023/11/27 09:42:36;;;;;;;10.10;9.60;;;6.00;24.50;;;;;;5058628;28;20485;-80
2023/11/27 09:45:10;;;;;;;10.40;9.70;;;6.10;24.00;;;;;;5062301;28;20427;-81
2023/11/27 09:47:42;;;;;;;9.77;9.13;;;6.20;23.50;;;;;;5061986;28;20253;-79
2023/11/27 09:50:10;;;;;;;8.70;8.33;;;6.30;22.80;;;;;;5062134;28;20418;-81
2023/11/27 09:52:57;;;;;;;9.30;8.90;;;6.30;22.70;;;;;;5057870;28;20522;-81
2023/11/27 09:55:23;;;;;;;9.70;9.20;;;6.30;22.60;;;;;;5063241;28;20437;-79
2023/11/27 09:57:49;;;;;;;8.93;8.40;;;6.30;22.40;;;;;;5069767;28;20513;-80
2023/11/27 10:00:19;;;;;;;8.77;8.47;;;6.40;22.20;;;;;;5055495;28;20453;-80
2023/11/27 10:02:49;;;;;;;9.47;8.97;;;6.30;22.40;;;;;;5054220;28;20557;-77
2023/11/27 10:05:21;;;;;;;9.40;8.90;;;6.30;22.30;;;;;;5074375;28;20426;-80
2023/11/27 10:07:49;;;;;;;8.97;8.57;;;6.30;22.30;;;;;;5052693;28;20851;-79
2023/11/27 10:10:16;;;;;;;9.10;8.60;;;6.30;22.20;;;;;;5050171;28;20426;-79
2023/11/27 10:12:45;;;;;;;8.57;8.17;;;6.40;21.80;;;;;;5050654;28;20437;-79
2023/11/27 10:15:13;;;;;;;9.60;9.20;;;6.40;22.20;;;;;;5071039;28;20516;-79
2023/11/27 10:17:41;;;;;;;9.00;8.60;;;6.40;21.70;;;;;;5070785;28;20422;-80
2023/11/27 10:20:12;;;;;;;8.67;8.27;;;6.50;21.70;;;;;;5040913;28;20430;-80
2023/11/27 10:22:41;;;;;;;7.80;7.50;;;6.50;22.30;;;;;;5044467;28;20485;-79
2023/11/27 10:25:08;;;;;;;8.70;8.30;;;6.50;21.70;;;;;;5040607;28;20429;-80
2023/11/27 10:27:34;;;;;;;7.80;7.40;;;6.50;21.20;;;;;;5047716;28;20934;-79
2023/11/27 10:30:03;;;;;;;7.70;7.40;;;6.40;20.70;;;;;;5071999;28;20426;-79
2023/11/27 10:32:29;;;;;;;8.73;8.33;;;6.30;21.20;;;;;;5070682;28;20232;-79
2023/11/27 10:34:57;;;;;;;8.13;7.83;;;6.40;21.00;;;;;;5054027;28;20437;-78
2023/11/27 10:37:23;;;;;;;8.40;8.03;;;6.40;20.50;;;;;;5068193;28;20438;-79
2023/11/27 10:39:52;;;;;;;8.90;8.40;;;6.40;20.60;;;;;;5069993;28;20461;-79
2023/11/27 10:42:18;;;;;;;8.73;8.33;;;6.40;21.00;;;;;;5074227;28;20671;-79
2023/11/27 10:44:47;;;;;;;8.60;8.20;;;6.40;21.20;;;;;;5057563;28;20453;-79
2023/11/27 10:47:14;;;;;;;8.57;8.17;;;6.50;20.50;;;;;;5061853;28;20176;-79
2023/11/27 10:49:40;;;;;;;8.43;7.90;;;6.40;20.70;;;;;;5059643;28;20435;-79
2023/11/27 10:52:09;;;;;;;8.97;8.30;;;6.50;21.10;;;;;;5046845;28;20478;-79
2023/11/27 10:54:38;;;;;;;8.40;8.00;;;6.50;21.00;;;;;;5043527;28;20433;-78
2023/11/27 10:57:04;;;;;;;8.07;7.67;;;6.50;20.30;;;;;;5057304;28;20806;-78
2023/11/27 10:59:34;;;;;;;8.83;8.43;;;6.60;20.60;;;;;;5041131;28;20442;-77
2023/11/27 11:02:04;;;;;;;9.43;8.93;;;6.50;20.90;;;;;;5048883;28;20988;-80
2023/11/27 11:04:51;;;;;;;8.10;7.80;;;6.50;21.70;;;;;;5045066;28;20433;-78
2023/11/27 11:07:29;;;;;;;8.63;8.17;;;6.60;20.40;;;;;;5040431;28;20429;-79
2023/11/27 11:09:55;;;;;;;8.60;8.20;;;6.50;21.10;;;;;;5046831;28;20453;-80
2023/11/27 11:12:23;;;;;;;8.30;7.90;;;6.50;20.90;;;;;;5037576;28;20494;-78
2023/11/27 11:14:50;;;;;;;8.97;8.37;;;6.60;20.90;;;;;;5056353;28;20840;-77
2023/11/27 11:17:27;;;;;;;9.00;8.60;;;6.60;20.80;;;;;;5045920;28;20433;-79
2023/11/27 11:20:14;;;;;;;8.83;8.30;;;6.60;20.70;;;;;;5047628;28;20471;-78
2023/11/27 11:23:09;;;;;;;9.00;8.60;;;6.70;20.90;;;;;;5062963;28;20472;-80
2023/11/27 11:26:22;;;;;;;8.37;8.00;;;6.80;20.40;;;;;;5039199;28;20495;-78
2023/11/27 11:28:53;;;;;;;8.40;8.00;;;6.90;19.70;;;;;;5045997;28;20991;-79
2023/11/27 11:31:23;;;;;;;7.90;7.60;;;7.00;20.00;;;;;;5070343;28;20506;-79
2023/11/27 11:33:49;;;;;;;8.83;8.37;;;7.00;19.00;;;;;;5067988;28;20422;-76
2023/11/27 11:36:32;;;;;;;8.83;8.40;;;7.00;19.50;;;;;;5056133;28;20441;-79
2023/11/27 11:38:58;;;;;;;8.10;7.70;;;7.10;19.40;;;;;;5068197;28;20660;-80
2023/11/27 11:41:31;;;;;;;7.53;7.10;;;7.20;19.40;;;;;;5066748;28;20462;-80
2023/11/27 11:43:58;;;;;;;9.37;8.97;;;7.30;19.00;;;;;;5054522;28;20422;-81
2023/11/27 11:46:26;;;;;;;9.07;8.43;;;7.20;18.80;;;;;;5069004;28;20422;-78
2023/11/27 11:49:02;;;;;;;8.30;7.90;;;7.10;18.70;;;;;;5076512;28;20517;-78
2023/11/27 11:51:31;;;;;;;8.60;8.10;;;7.10;19.10;;;;;;5052291;28;20443;-78
2023/11/27 11:53:57;;;;;;;8.63;8.23;;;7.10;19.30;;;;;;5061950;28;20426;-78
2023/11/27 11:56:23;;;;;;;8.20;7.90;;;7.20;19.30;;;;;;5065494;28;20437;-79
2023/11/27 11:58:59;;;;;;;8.17;7.70;;;7.20;18.10;;;;;;5072992;28;20179;-79
2023/11/27 12:01:32;;;;;;;7.33;7.03;;;7.10;18.70;;;;;;5062112;28;20446;-79
2023/11/27 12:04:04;;;;;;;7.80;7.50;;;7.20;18.10;;;;;;5040184;28;20461;-78
2023/11/27 12:06:32;;;;;;;7.50;7.20;;;7.10;18.60;;;;;;5056126;28;20789;-79
2023/11/27 12:08:58;;;;;;;7.77;7.37;;;7.10;17.90;;;;;;5054314;28;20461;-80
2023/11/27 12:11:24;;;;;;;7.40;6.90;;;7.10;18.40;;;;;;5049425;28;20504;-79
2023/11/27 12:13:51;;;;;;;6.90;6.50;;;7.00;18.30;;;;;;5046073;28;20437;-79
2023/11/27 12:16:21;;;;;;;7.03;6.73;;;7.00;18.50;;;;;;5043467;28;20187;-80
2023/11/27 12:18:49;;;;;;;7.17;6.87;;;7.00;18.30;;;;;;5045242;28;20452;-80
2023/11/27 12:21:20;;;;;;;7.90;7.50;;;7.00;18.70;;;;;;5059384;28;20473;-80
2023/11/27 12:23:47;;;;;;;7.87;7.37;;;7.10;18.60;;;;;;5053728;28;20481;-80
2023/11/27 12:26:17;;;;;;;7.77;7.37;;;7.10;19.00;;;;;;5065073;28;20423;-78
2023/11/27 12:28:46;;;;;;;7.77;7.40;;;7.20;19.00;;;;;;5043866;28;20427;-80
2023/11/27 12:31:14;;;;;;;7.40;7.00;;;7.00;19.00;;;;;;5068169;28;20454;-80
2023/11/27 12:33:40;;;;;;;8.13;7.73;;;7.00;19.30;;;;;;5046529;28;20633;-79
2023/11/27 12:36:07;;;;;;;8.13;7.83;;;7.00;19.60;;;;;;5071407;28;20501;-79
2023/11/27 12:38:35;;;;;;;7.47;7.17;;;7.00;19.60;;;;;;5076599;28;20218;-83
2023/11/27 12:41:08;;;;;;;6.70;6.40;;;7.00;19.60;;;;;;5060593;28;20517;-82
2023/11/27 12:43:36;;;;;;;7.80;7.30;;;7.00;20.10;;;;;;5057197;28;20557;-82
2023/11/27 12:46:05;;;;;;;6.80;6.50;;;6.90;21.10;;;;;;5044799;28;20845;-80
2023/11/27 12:48:34;;;;;;;7.37;7.07;;;6.90;22.00;;;;;;5062758;28;20430;-80
2023/11/27 12:51:00;;;;;;;7.27;6.97;;;6.80;21.90;;;;;;5067368;28;20477;-81
2023/11/27 12:53:26;;;;;;;6.53;6.30;;;6.70;21.80;;;;;;5059865;28;20541;-79
2023/11/27 12:55:53;;;;;;;6.73;6.33;;;6.70;23.00;;;;;;5057384;28;20200;-77